createdAt,value
2023-08-17T00:01:40.077Z,19.90
2023-08-17T00:04:07.020Z,19.96
2023-08-17T00:06:33.962Z,20.00
2023-08-17T00:09:00.684Z,19.98
2023-08-17T00:11:27.459Z,20.02
2023-08-17T00:13:54.266Z,20.05
2023-08-17T00:16:21.074Z,20.12
2023-08-17T00:18:49.376Z,20.19
2023-08-17T00:21:16.175Z,20.26
2023-08-17T00:23:42.918Z,20.21
2023-08-17T00:26:10.445Z,20.34
2023-08-17T00:28:37.333Z,20.26
2023-08-17T00:31:04.091Z,19.98
2023-08-17T00:33:31.013Z,19.85
2023-08-17T00:35:57.767Z,19.69
2023-08-17T00:38:24.503Z,19.68
2023-08-17T00:40:51.331Z,19.61
2023-08-17T00:43:18.484Z,19.70
2023-08-17T00:45:47.901Z,19.25
2023-08-17T00:48:15.522Z,19.24
2023-08-17T00:50:42.774Z,19.24
2023-08-17T00:53:14.762Z,19.39
2023-08-17T00:55:41.888Z,19.55
2023-08-17T00:58:08.932Z,19.61
2023-08-17T01:00:36.240Z,19.80
2023-08-17T01:03:03.970Z,19.69
2023-08-17T01:05:34.029Z,19.86
2023-08-17T01:08:01.739Z,19.70
2023-08-17T01:10:42.513Z,19.80
2023-08-17T01:13:22.288Z,19.85
2023-08-17T01:15:57.820Z,19.80
2023-08-17T01:18:32.154Z,19.90
2023-08-17T01:20:59.794Z,19.85
2023-08-17T01:23:26.599Z,19.63
2023-08-17T01:25:55.036Z,19.34
2023-08-17T01:28:21.935Z,19.30
2023-08-17T01:31:17.637Z,19.09
2023-08-17T01:33:53.335Z,19.36
2023-08-17T01:36:31.287Z,19.57
2023-08-17T01:38:58.412Z,19.73
2023-08-17T01:41:28.032Z,19.82
2023-08-17T01:43:56.214Z,19.90
2023-08-17T01:46:23.075Z,19.89
2023-08-17T01:48:49.982Z,19.90
2023-08-17T01:51:23.361Z,19.93
2023-08-17T01:53:50.311Z,19.96
2023-08-17T01:56:17.094Z,19.97
2023-08-17T01:58:44.112Z,20.03
2023-08-17T02:01:11.004Z,19.92
2023-08-17T02:03:37.891Z,19.82
2023-08-17T02:06:04.695Z,18.94
2023-08-17T02:08:31.643Z,19.11
2023-08-17T02:10:58.602Z,19.21
2023-08-17T02:13:25.638Z,18.54
2023-08-17T02:15:52.446Z,18.62
2023-08-17T02:18:19.268Z,18.90
2023-08-17T02:20:46.989Z,19.11
2023-08-17T02:23:13.788Z,19.26
2023-08-17T02:25:41.206Z,19.14
2023-08-17T02:28:08.285Z,18.62
2023-08-17T02:30:35.361Z,18.80
2023-08-17T02:33:02.386Z,19.03
2023-08-17T02:35:29.237Z,19.05
2023-08-17T02:37:56.121Z,19.10
2023-08-17T02:40:23.100Z,18.81
2023-08-17T02:42:49.934Z,18.88
2023-08-17T02:45:16.829Z,18.78
2023-08-17T02:47:43.691Z,18.89
2023-08-17T02:50:11.425Z,18.86
2023-08-17T02:52:38.314Z,18.96
2023-08-17T02:55:05.730Z,19.12
2023-08-17T02:57:32.825Z,19.06
2023-08-17T02:59:59.857Z,18.89
2023-08-17T03:02:27.072Z,18.79
2023-08-17T03:04:53.997Z,18.85
2023-08-17T03:07:20.710Z,18.79
2023-08-17T03:09:47.381Z,18.35
2023-08-17T03:12:14.159Z,18.47
2023-08-17T03:14:41.009Z,18.56
2023-08-17T03:17:07.809Z,18.70
2023-08-17T03:19:34.557Z,18.84
2023-08-17T03:22:01.305Z,18.81
2023-08-17T03:24:28.165Z,18.76
2023-08-17T03:26:54.859Z,18.55
2023-08-17T03:29:21.773Z,18.66
2023-08-17T03:31:48.809Z,18.58
2023-08-17T03:34:15.524Z,18.58
2023-08-17T03:36:42.568Z,18.55
2023-08-17T03:39:09.369Z,18.53
2023-08-17T03:41:37.929Z,18.72
2023-08-17T03:44:07.165Z,18.76
2023-08-17T03:46:35.350Z,18.97
2023-08-17T03:49:05.011Z,18.99
2023-08-17T03:51:31.941Z,18.93
2023-08-17T03:53:59.115Z,18.86
2023-08-17T03:56:26.588Z,18.91
2023-08-17T03:58:54.851Z,18.84
2023-08-17T04:01:21.676Z,18.82
2023-08-17T04:03:48.445Z,18.68
2023-08-17T04:06:15.217Z,18.84
2023-08-17T04:08:43.114Z,18.91
2023-08-17T04:11:11.638Z,18.78
2023-08-17T04:13:38.637Z,18.91
2023-08-17T04:16:05.486Z,18.91
2023-08-17T04:18:32.538Z,18.77
2023-08-17T04:20:59.470Z,18.75
2023-08-17T04:23:26.763Z,18.84
2023-08-17T04:25:55.929Z,18.94
2023-08-17T04:28:22.872Z,18.92
2023-08-17T04:30:49.714Z,18.94
2023-08-17T04:33:16.413Z,18.97
2023-08-17T04:35:43.251Z,19.07
2023-08-17T04:38:10.124Z,18.91
2023-08-17T04:40:36.943Z,18.78
2023-08-17T04:43:04.162Z,18.77
2023-08-17T04:45:31.051Z,18.91
2023-08-17T04:47:57.921Z,19.01
2023-08-17T04:50:24.893Z,19.14
2023-08-17T04:52:51.657Z,19.23
2023-08-17T04:55:18.411Z,19.26
2023-08-17T04:57:45.405Z,19.01
2023-08-17T05:00:13.782Z,18.98
2023-08-17T05:02:40.900Z,18.92
2023-08-17T05:05:09.913Z,18.93
2023-08-17T05:07:36.794Z,18.99
2023-08-17T05:10:03.981Z,19.09
2023-08-17T05:12:30.884Z,19.17
2023-08-17T05:14:57.659Z,19.32
2023-08-17T05:17:24.818Z,19.33
2023-08-17T05:19:52.821Z,19.32
2023-08-17T05:22:19.583Z,19.45
2023-08-17T05:24:46.396Z,19.24
2023-08-17T05:27:13.314Z,18.94
2023-08-17T05:29:40.089Z,18.29
2023-08-17T05:32:07.272Z,18.66
2023-08-17T05:34:34.147Z,18.84
2023-08-17T05:37:00.894Z,18.86
2023-08-17T05:39:29.900Z,18.93
2023-08-17T05:41:56.682Z,19.08
2023-08-17T05:44:23.514Z,19.32
2023-08-17T05:46:50.340Z,19.38
2023-08-17T05:49:25.468Z,19.43
2023-08-17T05:51:52.512Z,19.48
2023-08-17T05:54:19.360Z,19.61
2023-08-17T05:56:48.383Z,19.64
2023-08-17T05:59:15.367Z,19.78
2023-08-17T06:01:42.483Z,19.60
2023-08-17T06:04:09.281Z,19.70
2023-08-17T06:06:36.158Z,19.83
2023-08-17T06:09:03.185Z,19.82
2023-08-17T06:11:29.931Z,19.71
2023-08-17T06:14:17.298Z,19.78
2023-08-17T06:16:44.236Z,19.80
2023-08-17T06:19:10.965Z,19.82
2023-08-17T06:21:37.745Z,19.80
2023-08-17T06:24:05.561Z,20.11
2023-08-17T06:26:32.570Z,20.29
2023-08-17T06:28:59.566Z,20.19
2023-08-17T06:31:28.812Z,20.06
2023-08-17T06:33:56.094Z,20.30
2023-08-17T06:36:22.949Z,20.38
2023-08-17T06:38:49.970Z,20.44
2023-08-17T06:41:17.786Z,20.42
2023-08-17T06:43:44.593Z,20.54
2023-08-17T06:46:11.556Z,20.62
2023-08-17T06:48:38.573Z,20.74
2023-08-17T06:51:06.395Z,20.64
2023-08-17T06:53:42.354Z,20.88
2023-08-17T06:56:10.813Z,20.98
2023-08-17T06:59:00.384Z,21.08
2023-08-17T07:01:27.819Z,21.18
2023-08-17T07:03:54.729Z,21.35
2023-08-17T07:06:21.763Z,21.23
2023-08-17T07:08:48.825Z,21.52
2023-08-17T07:11:15.838Z,21.63
2023-08-17T07:13:43.038Z,21.65
2023-08-17T07:16:10.029Z,21.88
2023-08-17T07:18:37.237Z,21.96
2023-08-17T07:21:04.082Z,22.06
2023-08-17T07:23:30.833Z,22.00
2023-08-17T07:25:57.717Z,22.13
2023-08-17T07:28:24.566Z,22.12
2023-08-17T07:30:51.311Z,22.13
2023-08-17T07:33:21.133Z,22.24
2023-08-17T07:35:47.989Z,22.33
2023-08-17T07:38:14.813Z,22.43
2023-08-17T07:40:44.200Z,22.49
2023-08-17T07:43:11.131Z,22.47
2023-08-17T07:45:40.447Z,22.45
2023-08-17T07:48:07.648Z,22.52
2023-08-17T07:50:42.537Z,22.33
2023-08-17T07:53:09.672Z,22.45
2023-08-17T07:58:08.378Z,22.38
2023-08-17T08:00:35.142Z,22.62
2023-08-17T08:03:06.584Z,22.72
2023-08-17T08:05:33.677Z,22.88
2023-08-17T08:08:00.714Z,23.07
2023-08-17T08:10:29.211Z,23.09
2023-08-17T08:12:58.086Z,23.01
2023-08-17T08:15:24.830Z,23.25
2023-08-17T08:17:51.990Z,23.30
2023-08-17T08:20:19.023Z,23.52
2023-08-17T08:22:48.729Z,23.67
2023-08-17T08:25:15.878Z,23.72
2023-08-17T08:27:43.144Z,23.77
2023-08-17T08:30:10.420Z,23.74
2023-08-17T08:32:37.351Z,23.79
2023-08-17T08:35:04.513Z,23.96
2023-08-17T08:37:31.287Z,23.93
2023-08-17T08:40:00.835Z,23.94
2023-08-17T08:42:27.854Z,24.10
2023-08-17T08:44:54.936Z,24.28
2023-08-17T08:47:22.861Z,24.27
2023-08-17T08:50:04.732Z,24.27
2023-08-17T08:52:43.992Z,24.15
2023-08-17T08:55:46.097Z,24.24
2023-08-17T08:58:13.816Z,24.44
2023-08-17T09:00:43.135Z,24.67
2023-08-17T09:03:11.287Z,24.92
2023-08-17T09:05:38.726Z,25.02
2023-08-17T09:08:09.933Z,25.12
2023-08-17T09:10:38.981Z,24.95
2023-08-17T09:13:06.381Z,24.97
2023-08-17T09:15:33.249Z,25.22
2023-08-17T09:18:05.048Z,25.43
2023-08-17T09:20:48.568Z,25.76
2023-08-17T09:23:21.099Z,26.04
2023-08-17T09:25:49.689Z,26.28
2023-08-17T09:28:18.495Z,26.33
2023-08-17T09:30:55.115Z,26.18
2023-08-17T09:33:26.856Z,26.22
2023-08-17T09:38:28.420Z,25.73
2023-08-17T09:40:56.160Z,25.83
2023-08-17T09:43:23.627Z,25.23
2023-08-17T09:46:10.328Z,24.76
2023-08-17T09:48:37.773Z,25.42
2023-08-17T09:51:06.697Z,25.77
2023-08-17T09:53:40.440Z,26.23
2023-08-17T09:56:17.662Z,26.25
2023-08-17T09:58:45.229Z,26.38
2023-08-17T10:01:14.762Z,26.47
2023-08-17T10:03:51.183Z,26.63
2023-08-17T10:08:58.929Z,26.85
2023-08-17T10:11:29.655Z,26.98
2023-08-17T10:14:11.850Z,27.33
2023-08-17T10:16:55.172Z,27.07
2023-08-17T10:19:35.566Z,26.80
2023-08-17T10:24:46.880Z,26.97
2023-08-17T10:27:15.001Z,26.88
2023-08-17T10:29:43.229Z,27.13
2023-08-17T10:32:10.184Z,27.36
2023-08-17T10:34:37.622Z,27.34
2023-08-17T10:37:05.060Z,27.46
2023-08-17T10:39:32.224Z,27.67
2023-08-17T10:41:59.894Z,28.07
2023-08-17T10:44:45.847Z,28.27
2023-08-17T10:47:35.660Z,28.23
2023-08-17T10:50:06.126Z,27.85
2023-08-17T10:52:34.909Z,28.01
2023-08-17T10:55:03.376Z,28.34
2023-08-17T10:57:37.233Z,28.63
2023-08-17T11:00:22.039Z,28.64
2023-08-17T11:02:57.295Z,28.94
2023-08-17T11:05:51.052Z,28.62
2023-08-17T11:08:22.133Z,28.93
2023-08-17T11:11:02.246Z,28.72
2023-08-17T11:13:32.091Z,28.99
2023-08-17T11:16:03.400Z,29.06
2023-08-17T11:18:31.758Z,29.37
2023-08-17T11:20:59.099Z,29.56
2023-08-17T11:23:26.503Z,29.25
2023-08-17T11:25:56.413Z,29.47
2023-08-17T11:28:24.637Z,29.57
2023-08-17T11:30:59.127Z,29.81
2023-08-17T11:33:30.364Z,30.10
2023-08-17T11:36:03.128Z,30.28
2023-08-17T11:38:43.840Z,30.65
2023-08-17T11:41:18.422Z,30.57
2023-08-17T11:43:46.841Z,29.37
2023-08-17T11:46:13.932Z,29.67
2023-08-17T11:48:40.898Z,30.06
2023-08-17T11:51:07.974Z,30.53
2023-08-17T11:53:40.245Z,30.55
2023-08-17T11:56:10.003Z,30.24
2023-08-17T11:58:48.137Z,29.49
2023-08-17T12:01:17.971Z,29.06
2023-08-17T12:03:46.149Z,29.43
2023-08-17T12:06:16.682Z,28.93
2023-08-17T12:08:47.452Z,29.64
2023-08-17T12:11:15.035Z,30.26
2023-08-17T12:13:43.953Z,29.90
2023-08-17T12:16:16.739Z,30.39
2023-08-17T12:18:48.802Z,30.90
2023-08-17T12:21:15.717Z,31.37
2023-08-17T12:23:43.402Z,31.62
2023-08-17T12:26:10.215Z,31.88
2023-08-17T12:28:37.640Z,31.40
2023-08-17T12:31:04.849Z,30.67
2023-08-17T12:33:32.042Z,30.89
2023-08-17T12:35:58.894Z,30.91
2023-08-17T12:38:26.710Z,30.64
2023-08-17T12:40:54.671Z,30.94
2023-08-17T12:43:21.671Z,30.64
2023-08-17T12:45:48.632Z,30.70
2023-08-17T12:48:15.345Z,31.10
2023-08-17T12:50:43.782Z,31.39
2023-08-17T12:53:11.293Z,31.85
2023-08-17T12:55:40.638Z,32.35
2023-08-17T12:58:10.659Z,32.44
2023-08-17T13:00:38.041Z,32.50
2023-08-17T13:03:05.448Z,32.45
2023-08-17T13:05:32.399Z,31.98
2023-08-17T13:08:01.045Z,31.69
2023-08-17T13:10:27.929Z,31.67
2023-08-17T13:12:57.995Z,31.88
2023-08-17T13:15:24.847Z,32.14
2023-08-17T13:17:51.827Z,32.07
2023-08-17T13:20:18.824Z,32.19
2023-08-17T13:22:45.615Z,32.51
2023-08-17T13:25:12.450Z,32.62
2023-08-17T13:27:39.388Z,32.77
2023-08-17T13:30:06.773Z,32.63
2023-08-17T13:32:33.797Z,32.03
2023-08-17T13:35:00.678Z,31.38
2023-08-17T13:37:29.130Z,31.67
2023-08-17T13:39:57.636Z,32.03
2023-08-17T13:42:24.563Z,31.78
2023-08-17T13:44:51.983Z,31.33
2023-08-17T13:47:18.797Z,31.75
2023-08-17T13:49:46.289Z,31.52
2023-08-17T13:52:13.280Z,31.83
2023-08-17T13:54:40.055Z,32.39
2023-08-17T13:57:06.901Z,32.27
2023-08-17T13:59:33.592Z,32.58
2023-08-17T14:02:01.510Z,32.62
2023-08-17T14:04:28.357Z,32.74
2023-08-17T14:06:55.191Z,32.03
2023-08-17T14:09:22.132Z,32.66
2023-08-17T14:11:48.961Z,32.57
2023-08-17T14:14:15.985Z,32.35
2023-08-17T14:16:43.771Z,32.25
2023-08-17T14:19:10.872Z,32.79
2023-08-17T14:21:37.662Z,32.81
2023-08-17T14:24:05.369Z,33.12
2023-08-17T14:26:33.161Z,32.44
2023-08-17T14:29:00.646Z,32.46
2023-08-17T14:31:27.554Z,33.06
2023-08-17T14:33:55.997Z,31.89
2023-08-17T14:36:23.030Z,32.51
2023-08-17T14:38:49.814Z,32.54
2023-08-17T14:41:17.136Z,32.79
2023-08-17T14:43:43.987Z,32.49
2023-08-17T14:46:15.247Z,32.71
2023-08-17T14:48:45.736Z,31.47
2023-08-17T14:51:13.420Z,31.54
2023-08-17T14:53:40.451Z,31.78
2023-08-17T14:56:07.607Z,31.79
2023-08-17T14:58:34.527Z,32.04
2023-08-17T15:01:02.369Z,31.99
2023-08-17T15:03:29.516Z,32.06
2023-08-17T15:05:56.535Z,31.58
2023-08-17T15:08:25.280Z,31.32
2023-08-17T15:10:52.170Z,30.96
2023-08-17T15:13:19.674Z,31.11
2023-08-17T15:15:46.683Z,30.87
2023-08-17T15:18:13.650Z,30.07
2023-08-17T15:20:42.351Z,29.83
2023-08-17T15:23:09.554Z,30.25
2023-08-17T15:25:36.545Z,30.51
2023-08-17T15:28:03.457Z,30.58
2023-08-17T15:30:30.763Z,30.56
2023-08-17T15:33:00.846Z,30.74
2023-08-17T15:35:27.739Z,30.50
2023-08-17T15:37:55.283Z,30.81
2023-08-17T15:40:22.278Z,31.04
2023-08-17T15:42:49.173Z,31.19
2023-08-17T15:45:19.208Z,31.33
2023-08-17T15:47:46.519Z,31.63
2023-08-17T15:50:15.215Z,31.80
2023-08-17T15:52:42.390Z,32.00
2023-08-17T15:55:09.478Z,31.75
2023-08-17T15:57:37.894Z,31.95
2023-08-17T16:00:05.363Z,32.18
2023-08-17T16:02:32.240Z,32.44
2023-08-17T16:04:59.031Z,32.51
2023-08-17T16:07:26.124Z,32.49
2023-08-17T16:09:53.088Z,32.29
2023-08-17T16:12:19.897Z,32.25
2023-08-17T16:14:49.530Z,31.83
2023-08-17T16:17:16.831Z,30.93
2023-08-17T16:19:43.668Z,31.28
2023-08-17T16:22:10.408Z,31.43
2023-08-17T16:24:37.125Z,30.92
2023-08-17T16:27:04.100Z,30.87
2023-08-17T16:29:30.875Z,30.94
2023-08-17T16:32:08.714Z,30.87
2023-08-17T16:34:37.072Z,31.00
2023-08-17T16:37:04.071Z,30.88
2023-08-17T16:39:31.016Z,30.63
2023-08-17T16:41:58.473Z,30.35
2023-08-17T16:44:28.102Z,30.08
2023-08-17T16:46:55.730Z,30.02
2023-08-17T16:49:29.768Z,29.54
2023-08-17T16:51:57.312Z,28.97
2023-08-17T16:54:24.113Z,28.77
2023-08-17T16:56:53.661Z,28.76
2023-08-17T16:59:21.067Z,28.68
2023-08-17T17:01:49.162Z,28.60
2023-08-17T17:04:16.267Z,28.54
2023-08-17T17:06:44.488Z,28.64
2023-08-17T17:09:11.252Z,28.95
2023-08-17T17:11:38.268Z,28.97
2023-08-17T17:14:05.679Z,29.03
2023-08-17T17:16:32.541Z,29.22
2023-08-17T17:18:59.400Z,29.35
2023-08-17T17:21:26.308Z,29.38
2023-08-17T17:23:53.243Z,29.51
2023-08-17T17:26:21.786Z,29.59
2023-08-17T17:28:48.922Z,29.58
2023-08-17T17:31:15.692Z,29.51
2023-08-17T17:33:42.450Z,29.38
2023-08-17T17:36:09.474Z,29.39
2023-08-17T17:38:36.326Z,29.38
2023-08-17T17:41:03.131Z,29.47
2023-08-17T17:43:29.936Z,29.22
2023-08-17T17:45:56.810Z,29.18
2023-08-17T17:48:23.681Z,29.25
2023-08-17T17:50:50.337Z,29.22
2023-08-17T17:53:17.330Z,29.26
2023-08-17T17:55:44.176Z,29.31
2023-08-17T17:58:11.301Z,29.30
2023-08-17T18:00:39.572Z,29.24
2023-08-17T18:03:14.968Z,29.16
2023-08-17T18:05:45.888Z,29.06
2023-08-17T18:08:15.807Z,29.08
2023-08-17T18:10:43.944Z,28.98
2023-08-17T18:13:11.134Z,28.91
2023-08-17T18:15:39.522Z,28.85
2023-08-17T18:18:07.553Z,28.81
2023-08-17T18:20:34.673Z,28.80
2023-08-17T18:23:02.350Z,28.82
2023-08-17T18:25:33.661Z,28.73
2023-08-17T18:28:00.774Z,28.75
2023-08-17T18:30:27.995Z,28.64
2023-08-17T18:32:58.400Z,28.43
2023-08-17T18:35:25.353Z,28.36
2023-08-17T18:37:52.613Z,28.36
2023-08-17T18:40:21.572Z,28.21
2023-08-17T18:42:50.474Z,28.19
2023-08-17T18:45:20.609Z,28.12
2023-08-17T18:47:47.965Z,28.02
2023-08-17T18:50:16.269Z,28.00
2023-08-17T18:52:44.037Z,28.04
2023-08-17T18:55:13.792Z,28.08
2023-08-17T18:57:41.618Z,28.18
2023-08-17T19:00:12.992Z,28.18
2023-08-17T19:02:41.263Z,28.23
2023-08-17T19:05:09.447Z,28.25
2023-08-17T19:07:36.372Z,28.30
2023-08-17T19:10:03.512Z,28.28
2023-08-17T19:12:31.024Z,28.27
2023-08-17T19:14:57.824Z,28.32
2023-08-17T19:17:24.671Z,28.15
2023-08-17T19:19:51.586Z,27.95
2023-08-17T19:22:19.868Z,27.83
2023-08-17T19:24:46.658Z,27.87
2023-08-17T19:27:13.576Z,27.72
2023-08-17T19:29:40.498Z,27.26
2023-08-17T19:32:07.915Z,26.50
2023-08-17T19:34:34.812Z,26.48
2023-08-17T19:37:01.885Z,26.53
2023-08-17T19:39:28.612Z,26.66
2023-08-17T19:41:56.075Z,26.89
2023-08-17T19:44:23.021Z,27.06
2023-08-17T19:46:49.769Z,27.17
2023-08-17T19:49:16.609Z,27.09
2023-08-17T19:51:45.219Z,26.87
2023-08-17T19:54:13.322Z,26.98
2023-08-17T19:56:40.861Z,26.99
2023-08-17T19:59:07.617Z,27.06
2023-08-17T20:01:35.114Z,27.09
2023-08-17T20:04:02.931Z,27.15
2023-08-17T20:06:32.986Z,27.17
2023-08-17T20:08:59.890Z,27.03
2023-08-17T20:11:28.142Z,26.73
2023-08-17T20:13:54.893Z,26.54
2023-08-17T20:16:21.894Z,26.49
2023-08-17T20:18:48.787Z,26.48
2023-08-17T20:21:16.028Z,26.29
2023-08-17T20:23:44.831Z,26.10
2023-08-17T20:26:13.174Z,26.20
2023-08-17T20:28:40.960Z,26.21
2023-08-17T20:31:08.114Z,26.14
2023-08-17T20:33:34.920Z,26.01
2023-08-17T20:36:01.717Z,26.12
2023-08-17T20:38:28.547Z,26.23
2023-08-17T20:40:55.352Z,26.29
2023-08-17T20:43:22.609Z,26.26
2023-08-17T20:45:49.684Z,26.32
2023-08-17T20:48:16.573Z,26.42
2023-08-17T20:50:47.731Z,26.47
2023-08-17T20:53:16.343Z,26.51
2023-08-17T20:55:43.658Z,26.50
2023-08-17T20:58:10.649Z,26.39
2023-08-17T21:00:37.540Z,26.35
2023-08-17T21:03:05.777Z,26.36
2023-08-17T21:05:33.157Z,26.18
2023-08-17T21:08:00.423Z,26.27
2023-08-17T21:10:27.953Z,26.27
2023-08-17T21:12:54.831Z,26.22
2023-08-17T21:15:21.653Z,26.29
2023-08-17T21:17:48.629Z,25.98
2023-08-17T21:20:15.845Z,25.98
2023-08-17T21:22:52.273Z,25.84
2023-08-17T21:25:20.271Z,25.94
2023-08-17T21:27:47.919Z,25.73
2023-08-17T21:30:16.764Z,25.66
2023-08-17T21:32:43.705Z,25.71
2023-08-17T21:35:12.769Z,25.69
2023-08-17T21:37:41.597Z,25.71
2023-08-17T21:40:09.142Z,25.64
2023-08-17T21:42:36.054Z,25.63
2023-08-17T21:45:03.124Z,25.63
2023-08-17T21:47:30.335Z,25.67
2023-08-17T21:49:57.544Z,25.67
2023-08-17T21:52:24.354Z,25.72
2023-08-17T21:54:51.506Z,25.67
2023-08-17T21:57:19.291Z,25.61
2023-08-17T21:59:46.125Z,25.58
2023-08-17T22:02:12.975Z,25.55
2023-08-17T22:04:39.909Z,25.58
2023-08-17T22:07:06.983Z,25.54
2023-08-17T22:09:34.719Z,25.61
2023-08-17T22:12:03.036Z,25.55
2023-08-17T22:14:32.871Z,25.44
2023-08-17T22:16:59.656Z,25.17
2023-08-17T22:19:28.075Z,25.08
2023-08-17T22:21:55.300Z,25.00
2023-08-17T22:24:22.276Z,25.04
2023-08-17T22:26:51.722Z,25.01
2023-08-17T22:29:21.309Z,24.59
2023-08-17T22:31:49.082Z,24.66
2023-08-17T22:34:15.886Z,24.74
2023-08-17T22:36:42.663Z,24.77
2023-08-17T22:39:09.462Z,24.85
2023-08-17T22:41:37.187Z,24.90
2023-08-17T22:44:04.181Z,24.99
2023-08-17T22:46:30.899Z,25.04
2023-08-17T22:48:57.701Z,25.10
2023-08-17T22:51:26.877Z,24.92
2023-08-17T22:53:53.856Z,24.81
2023-08-17T22:56:21.023Z,24.67
2023-08-17T22:58:47.882Z,24.57
2023-08-17T23:01:14.658Z,24.05
2023-08-17T23:03:41.554Z,23.83
2023-08-17T23:06:08.539Z,23.71
2023-08-17T23:08:36.847Z,23.79
2023-08-17T23:11:04.269Z,23.81
2023-08-17T23:13:31.018Z,23.79
2023-08-17T23:15:57.836Z,23.74
2023-08-17T23:18:24.747Z,23.95
2023-08-17T23:20:51.754Z,24.06
2023-08-17T23:23:19.038Z,24.17
2023-08-17T23:25:46.116Z,24.23
2023-08-17T23:28:13.295Z,24.29
2023-08-17T23:30:41.020Z,24.35
2023-08-17T23:33:09.268Z,24.49
2023-08-17T23:35:36.641Z,24.51
2023-08-17T23:38:03.564Z,24.48
2023-08-17T23:40:30.436Z,24.32
2023-08-17T23:42:57.509Z,24.12
2023-08-17T23:45:24.523Z,24.16
2023-08-17T23:47:51.401Z,23.93
2023-08-17T23:50:18.303Z,23.93
2023-08-17T23:52:45.247Z,24.02
2023-08-17T23:55:12.705Z,24.07
2023-08-17T23:57:39.568Z,24.02
